Time;durP1;ratioP1;P1;durP2;ratioP2;P2;SDS_P1;SDS_P2;PMS_P1;PMS_P2;Temp;Humidity;BMP_temperature;BMP_pressure;BME280_temperature;BME280_humidity;BME280_pressure;Samples;Min_cycle;Max_cycle;Signal;HPM_P1;HPM_P2
2020/12/16 00:02:18;;;;;;;12.80;9.83;;;3.70;96.30;;;;;;4992749;28;20209;-75
2020/12/16 00:04:45;;;;;;;12.43;9.00;;;3.70;96.30;;;;;;4993465;28;20177;-74
2020/12/16 00:07:11;;;;;;;12.37;9.37;;;3.70;96.30;;;;;;4993207;28;20474;-74
2020/12/16 00:09:36;;;;;;;11.40;9.37;;;3.60;96.30;;;;;;4993309;28;20503;-74
2020/12/16 00:12:02;;;;;;;14.93;10.43;;;3.70;96.30;;;;;;4993096;28;20581;-75
2020/12/16 00:14:27;;;;;;;12.83;9.33;;;3.60;96.30;;;;;;4993265;28;20633;-74
2020/12/16 00:16:54;;;;;;;13.17;9.43;;;3.60;96.30;;;;;;4993337;28;20201;-75
2020/12/16 00:19:19;;;;;;;13.47;9.90;;;3.60;96.30;;;;;;4993137;28;20190;-75
2020/12/16 00:21:45;;;;;;;13.80;9.83;;;3.60;96.30;;;;;;4992797;28;20412;-75
2020/12/16 00:24:10;;;;;;;14.73;9.57;;;3.70;96.30;;;;;;4993192;28;20540;-75
2020/12/16 00:26:36;;;;;;;13.83;10.27;;;3.70;96.30;;;;;;4993039;28;20197;-75
2020/12/16 00:29:01;;;;;;;12.07;9.20;;;3.80;96.30;;;;;;4993097;28;20592;-74
2020/12/16 00:31:27;;;;;;;12.50;8.60;;;3.70;96.30;;;;;;4993121;28;20177;-75
2020/12/16 00:33:52;;;;;;;13.00;9.33;;;3.70;96.30;;;;;;4992922;28;20170;-74
2020/12/16 00:36:18;;;;;;;11.67;9.63;;;3.70;96.30;;;;;;4993039;28;20180;-75
2020/12/16 00:38:45;;;;;;;14.53;10.70;;;3.70;96.30;;;;;;4992926;28;20291;-74
2020/12/16 00:41:10;;;;;;;12.97;8.97;;;3.60;96.30;;;;;;4992845;28;20268;-74
2020/12/16 00:43:36;;;;;;;11.73;9.43;;;3.50;96.30;;;;;;4992736;28;20832;-74
2020/12/16 00:46:01;;;;;;;13.07;10.40;;;3.50;96.30;;;;;;4992768;28;20237;-74
2020/12/16 00:48:27;;;;;;;14.00;10.80;;;3.50;96.30;;;;;;4992847;28;20197;-74
2020/12/16 00:50:52;;;;;;;15.03;10.10;;;3.60;96.30;;;;;;4992851;28;20696;-74
2020/12/16 00:53:18;;;;;;;13.50;10.37;;;3.60;96.30;;;;;;4992609;28;20248;-74
2020/12/16 00:55:43;;;;;;;14.17;10.90;;;3.60;96.30;;;;;;4992817;28;20185;-75
2020/12/16 00:58:09;;;;;;;13.87;9.60;;;3.60;96.30;;;;;;4992571;28;20217;-74
2020/12/16 04:08:54;;;;;;;19.27;11.70;;;4.00;96.30;;;;;;5250698;23;20484;-77
2020/12/16 04:11:20;;;;;;;19.77;12.97;;;4.00;96.30;;;;;;4991920;28;20417;-75
2020/12/16 04:13:45;;;;;;;15.73;11.60;;;4.10;96.30;;;;;;4992764;28;20173;-76
2020/12/16 04:16:14;;;;;;;14.23;11.40;;;4.10;96.30;;;;;;4993266;28;20654;-76
2020/12/16 04:18:40;;;;;;;16.40;11.47;;;4.10;96.30;;;;;;4980225;28;20202;-76
2020/12/16 04:21:06;;;;;;;18.10;12.17;;;4.20;96.30;;;;;;4974095;28;20432;-76
2020/12/16 04:23:33;;;;;;;13.87;11.30;;;4.10;96.30;;;;;;4973768;28;20174;-76
2020/12/16 04:25:58;;;;;;;14.17;11.40;;;4.10;96.30;;;;;;4973843;28;20470;-75
2020/12/16 04:28:24;;;;;;;15.93;11.33;;;4.10;96.30;;;;;;4973782;28;20426;-75
2020/12/16 04:30:49;;;;;;;16.90;12.57;;;4.10;96.30;;;;;;4973564;28;20717;-76
2020/12/16 04:33:15;;;;;;;16.90;12.70;;;4.10;96.30;;;;;;4972988;28;20258;-76
2020/12/16 04:35:40;;;;;;;17.10;12.20;;;4.10;96.30;;;;;;4972337;28;20233;-76
2020/12/16 04:38:06;;;;;;;17.33;12.63;;;4.10;96.30;;;;;;4973522;28;20287;-75
2020/12/16 04:40:31;;;;;;;19.00;13.27;;;4.00;96.30;;;;;;4973497;28;20167;-76
2020/12/16 04:43:08;;;;;;;21.07;13.00;;;3.90;96.30;;;;;;4972907;28;20170;-75
2020/12/16 04:45:36;;;;;;;17.17;12.70;;;3.90;96.30;;;;;;4973385;28;20162;-76
2020/12/16 04:48:02;;;;;;;15.80;12.83;;;4.00;96.30;;;;;;4973198;28;20791;-76
2020/12/16 04:50:27;;;;;;;17.47;12.17;;;4.00;96.30;;;;;;4973317;28;20413;-75
2020/12/16 04:52:53;;;;;;;16.93;12.50;;;4.10;96.30;;;;;;4972685;28;20500;-76
2020/12/16 04:55:20;;;;;;;17.60;12.77;;;4.00;96.30;;;;;;4973349;28;20177;-75
2020/12/16 04:57:52;;;;;;;19.60;14.30;;;4.00;96.30;;;;;;4973416;28;20256;-77
2020/12/16 05:00:28;;;;;;;18.40;14.00;;;4.00;96.30;;;;;;4973191;28;20412;-75
2020/12/16 05:03:00;;;;;;;21.30;13.87;;;4.00;96.30;;;;;;4972720;28;20449;-76
2020/12/16 05:05:27;;;;;;;21.40;14.70;;;4.00;96.30;;;;;;4973302;28;20410;-76
2020/12/16 05:07:53;;;;;;;22.97;14.87;;;3.90;96.30;;;;;;4972936;28;20545;-76
2020/12/16 05:10:33;;;;;;;21.57;14.87;;;3.90;96.30;;;;;;4973239;28;20498;-76
2020/12/16 05:13:13;;;;;;;20.20;15.10;;;3.80;96.30;;;;;;4972462;28;20220;-76
2020/12/16 05:15:39;;;;;;;19.70;13.93;;;3.90;96.30;;;;;;4971820;28;20504;-76
2020/12/16 05:18:05;;;;;;;21.53;15.10;;;3.90;96.30;;;;;;4972986;28;20459;-76
2020/12/16 05:20:30;;;;;;;28.77;19.40;;;3.90;96.30;;;;;;4973109;28;20968;-77
2020/12/16 05:23:01;;;;;;;33.10;23.13;;;3.90;96.30;;;;;;4970936;28;20175;-76
2020/12/16 05:25:27;;;;;;;31.00;17.90;;;4.00;96.30;;;;;;4997123;23;20205;-75
2020/12/16 05:27:53;;;;;;;28.27;18.33;;;4.00;96.30;;;;;;4990510;28;20444;-75
2020/12/16 05:30:19;;;;;;;25.53;15.70;;;4.00;96.30;;;;;;4992225;28;20491;-75
2020/12/16 05:32:45;;;;;;;30.83;17.47;;;3.90;96.30;;;;;;4990372;28;20699;-74
2020/12/16 05:35:22;;;;;;;27.07;18.37;;;3.90;96.30;;;;;;4992243;28;20878;-75
2020/12/16 05:37:48;;;;;;;24.90;16.83;;;4.00;96.30;;;;;;4972567;28;20637;-75
2020/12/16 05:40:20;;;;;;;26.37;17.07;;;4.10;96.30;;;;;;4972964;28;20417;-76
2020/12/16 05:42:50;;;;;;;21.37;15.63;;;4.10;96.30;;;;;;4970732;28;20916;-74
2020/12/16 05:45:20;;;;;;;24.43;17.53;;;4.10;96.30;;;;;;4966207;28;20508;-75
2020/12/16 05:48:05;;;;;;;63.93;35.50;;;4.00;96.30;;;;;;4953304;28;20632;-75
2020/12/16 05:50:51;;;;;;;26.30;18.20;;;4.00;96.30;;;;;;4972259;28;20417;-74
2020/12/16 05:53:23;;;;;;;34.90;22.20;;;4.00;96.30;;;;;;4970379;28;20420;-75
2020/12/16 05:55:51;;;;;;;25.13;17.30;;;4.00;96.30;;;;;;4972540;28;20432;-74
2020/12/16 05:58:19;;;;;;;23.97;16.60;;;4.10;96.30;;;;;;4971631;28;21065;-75
2020/12/16 06:01:00;;;;;;;26.33;17.90;;;4.10;96.30;;;;;;4973650;28;20512;-75
2020/12/16 06:03:30;;;;;;;70.60;43.47;;;4.10;96.30;;;;;;4973907;28;20461;-75
2020/12/16 06:06:01;;;;;;;24.30;16.40;;;4.10;96.30;;;;;;4976182;28;20952;-76
2020/12/16 06:08:34;;;;;;;28.30;18.47;;;4.10;96.30;;;;;;4976053;28;20432;-76
2020/12/16 06:11:00;;;;;;;33.00;22.70;;;4.10;96.30;;;;;;4976286;28;20399;-75
2020/12/16 06:13:26;;;;;;;27.50;19.10;;;4.10;96.30;;;;;;4975502;28;20428;-75
2020/12/16 06:16:08;;;;;;;26.63;17.83;;;4.20;96.30;;;;;;4976187;28;20506;-75
2020/12/16 06:18:39;;;;;;;25.33;19.17;;;4.20;96.30;;;;;;4975720;28;20677;-74
2020/12/16 06:21:07;;;;;;;91.57;45.33;;;4.10;96.30;;;;;;4976072;28;20405;-75
2020/12/16 06:23:35;;;;;;;34.53;21.90;;;4.10;96.30;;;;;;4974533;28;20418;-75
2020/12/16 06:26:04;;;;;;;23.30;16.27;;;4.10;96.30;;;;;;4975447;28;20473;-75
2020/12/16 06:28:30;;;;;;;26.87;18.17;;;4.10;96.30;;;;;;4975830;28;20406;-75
2020/12/16 06:31:19;;;;;;;27.47;18.10;;;4.10;96.30;;;;;;4975811;28;20441;-75
2020/12/16 06:34:03;;;;;;;26.77;17.97;;;4.10;96.30;;;;;;4975696;28;20186;-75
2020/12/16 06:36:39;;;;;;;28.90;18.40;;;4.10;96.30;;;;;;4975676;28;20984;-75
2020/12/16 06:39:15;;;;;;;27.37;16.70;;;4.00;96.30;;;;;;4975686;28;21101;-75
2020/12/16 06:41:57;;;;;;;23.73;16.40;;;3.90;96.30;;;;;;4975434;28;20417;-75
2020/12/16 06:44:23;;;;;;;24.77;16.80;;;3.90;96.30;;;;;;4968294;28;20805;-75
2020/12/16 06:46:53;;;;;;;31.97;19.53;;;4.00;96.30;;;;;;4975216;28;20505;-74
2020/12/16 06:49:18;;;;;;;27.50;19.30;;;3.90;96.30;;;;;;4975539;28;20642;-74
2020/12/16 06:51:46;;;;;;;29.60;18.87;;;3.90;96.30;;;;;;4974883;28;20488;-75
2020/12/16 06:54:14;;;;;;;28.90;18.70;;;3.90;96.30;;;;;;4955948;29;20614;-74
2020/12/16 06:56:41;;;;;;;27.47;19.70;;;3.80;96.30;;;;;;4954747;28;20890;-75
2020/12/16 06:59:08;;;;;;;24.03;17.93;;;3.80;96.30;;;;;;4969867;28;20433;-75
2020/12/16 07:01:33;;;;;;;33.50;19.40;;;3.80;96.30;;;;;;4975319;28;20416;-75
2020/12/16 07:03:59;;;;;;;27.13;18.73;;;3.70;96.30;;;;;;4974957;28;20492;-75
2020/12/16 07:06:28;;;;;;;34.07;20.90;;;3.70;96.30;;;;;;4974938;28;20284;-75
2020/12/16 07:09:17;;;;;;;25.80;19.10;;;3.60;96.30;;;;;;4973930;28;20425;-75
2020/12/16 07:11:47;;;;;;;27.63;18.53;;;3.70;96.30;;;;;;4973641;28;20417;-75
2020/12/16 07:14:15;;;;;;;32.53;19.20;;;3.70;96.30;;;;;;4975165;28;20434;-74
2020/12/16 07:16:42;;;;;;;27.90;18.33;;;3.70;96.30;;;;;;4974807;28;20442;-75
2020/12/16 07:19:07;;;;;;;28.77;18.17;;;3.80;96.30;;;;;;4974751;28;20780;-76
2020/12/16 07:21:35;;;;;;;27.40;18.27;;;3.80;96.30;;;;;;4974609;28;20506;-75
2020/12/16 07:24:19;;;;;;;28.87;18.23;;;3.80;96.30;;;;;;4973727;28;20197;-75
2020/12/16 07:26:50;;;;;;;27.97;17.67;;;3.80;96.30;;;;;;4983742;28;20469;-75
2020/12/16 07:29:32;;;;;;;23.90;17.60;;;3.80;96.30;;;;;;4974402;28;20414;-75
2020/12/16 07:32:19;;;;;;;32.90;17.33;;;3.80;96.30;;;;;;4974254;28;20413;-75
2020/12/16 07:34:57;;;;;;;26.37;16.47;;;3.90;96.30;;;;;;4973891;28;20500;-75
2020/12/16 07:37:23;;;;;;;24.57;16.80;;;3.90;96.30;;;;;;4974551;28;20533;-75
2020/12/16 07:39:53;;;;;;;23.23;16.27;;;3.90;96.30;;;;;;4973867;28;20565;-75
2020/12/16 07:42:20;;;;;;;22.27;16.60;;;3.90;96.30;;;;;;4974115;28;20461;-75
2020/12/16 07:44:46;;;;;;;26.47;18.07;;;4.00;96.30;;;;;;4974230;28;20412;-75
2020/12/16 07:47:11;;;;;;;23.07;16.50;;;4.00;96.30;;;;;;4972593;28;20500;-75
2020/12/16 07:49:40;;;;;;;25.30;17.73;;;4.00;96.30;;;;;;4974090;28;20171;-75
2020/12/16 07:52:06;;;;;;;24.40;18.00;;;3.90;96.30;;;;;;4970611;28;20183;-75
2020/12/16 07:54:31;;;;;;;24.23;17.40;;;3.90;96.30;;;;;;4973878;28;20762;-75
2020/12/16 07:56:57;;;;;;;23.93;16.67;;;3.80;96.30;;;;;;4973732;28;20205;-75
2020/12/16 07:59:31;;;;;;;22.30;16.87;;;3.70;96.30;;;;;;4972180;28;20244;-75
2020/12/16 08:02:14;;;;;;;23.77;17.97;;;3.70;96.30;;;;;;4973382;28;20653;-75
2020/12/16 08:04:42;;;;;;;24.90;17.33;;;3.70;96.30;;;;;;4974308;28;21104;-75
2020/12/16 08:07:28;;;;;;;26.13;17.30;;;3.80;96.30;;;;;;4973898;28;20465;-75
2020/12/16 08:09:59;;;;;;;21.97;16.67;;;3.80;96.30;;;;;;4973391;28;20429;-76
2020/12/16 08:12:27;;;;;;;26.23;18.53;;;3.80;96.30;;;;;;4973392;28;20414;-75
2020/12/16 08:15:16;;;;;;;22.93;17.67;;;3.80;96.30;;;;;;4973982;28;20409;-75
2020/12/16 08:17:43;;;;;;;27.40;20.23;;;3.80;96.30;;;;;;4965828;28;20449;-75
2020/12/16 08:20:11;;;;;;;24.40;18.30;;;3.80;96.30;;;;;;4961452;28;20429;-75
2020/12/16 08:22:37;;;;;;;25.70;19.33;;;3.80;96.30;;;;;;4972929;28;20424;-75
2020/12/16 08:25:08;;;;;;;22.80;18.00;;;3.80;96.30;;;;;;4972085;28;20467;-75
2020/12/16 08:27:35;;;;;;;22.50;16.10;;;3.80;96.30;;;;;;4972918;28;20465;-75
2020/12/16 08:30:03;;;;;;;22.80;16.87;;;3.80;96.30;;;;;;4973714;28;20409;-75
2020/12/16 08:32:31;;;;;;;20.33;16.67;;;3.80;96.30;;;;;;4973082;28;20937;-75
2020/12/16 08:34:58;;;;;;;26.17;19.13;;;3.70;96.30;;;;;;4973612;28;20422;-74
2020/12/16 08:37:24;;;;;;;19.90;15.53;;;3.80;96.30;;;;;;4973320;28;20449;-75
2020/12/16 08:39:50;;;;;;;21.00;15.73;;;3.70;96.30;;;;;;4973492;28;20420;-75
2020/12/16 08:42:24;;;;;;;23.07;16.83;;;3.70;96.30;;;;;;4973247;28;20198;-75
2020/12/16 08:44:50;;;;;;;19.80;15.17;;;3.80;96.30;;;;;;4973601;28;20421;-75
2020/12/16 08:47:23;;;;;;;27.73;15.67;;;3.80;96.30;;;;;;4973190;28;20818;-75
2020/12/16 08:49:50;;;;;;;22.23;16.30;;;3.80;96.30;;;;;;4972229;28;20428;-75
2020/12/16 08:52:16;;;;;;;25.13;15.43;;;3.80;96.30;;;;;;4972990;28;20433;-75
2020/12/16 08:54:42;;;;;;;19.00;15.57;;;3.70;96.30;;;;;;4972179;28;20445;-75
2020/12/16 08:57:07;;;;;;;20.47;15.93;;;3.70;96.30;;;;;;4973459;28;20194;-75
2020/12/16 08:59:33;;;;;;;22.60;14.53;;;3.70;96.30;;;;;;4973107;28;20190;-75
2020/12/16 09:02:01;;;;;;;23.23;16.00;;;3.70;96.30;;;;;;4972941;28;20675;-75
2020/12/16 09:04:28;;;;;;;22.30;17.40;;;3.70;96.30;;;;;;4973036;28;21041;-75
2020/12/16 09:07:11;;;;;;;21.20;15.77;;;3.80;96.30;;;;;;4972952;28;20499;-75
2020/12/16 09:09:39;;;;;;;20.17;14.60;;;3.90;96.30;;;;;;4973176;28;20410;-75
2020/12/16 09:12:10;;;;;;;19.47;15.03;;;4.00;96.30;;;;;;4971665;28;21091;-75
2020/12/16 09:14:36;;;;;;;22.93;13.87;;;4.10;96.30;;;;;;4954066;28;20419;-75
2020/12/16 09:17:08;;;;;;;20.00;13.03;;;4.20;96.30;;;;;;4953878;28;20443;-75
2020/12/16 09:19:35;;;;;;;20.83;14.57;;;4.20;96.30;;;;;;4953821;28;20179;-76
2020/12/16 09:22:01;;;;;;;21.70;15.43;;;4.20;96.30;;;;;;4968587;28;20426;-75
2020/12/16 09:24:27;;;;;;;19.87;14.00;;;4.30;96.30;;;;;;4953816;29;20415;-75
2020/12/16 09:26:56;;;;;;;21.67;14.73;;;4.50;96.30;;;;;;4953646;28;20851;-75
2020/12/16 09:29:27;;;;;;;21.10;15.40;;;4.60;96.30;;;;;;4953634;28;20902;-75
2020/12/16 09:32:14;;;;;;;19.23;14.73;;;4.70;96.30;;;;;;4953579;29;20505;-75
2020/12/16 09:34:41;;;;;;;19.50;15.50;;;4.50;96.30;;;;;;4953692;28;20434;-75
2020/12/16 09:37:30;;;;;;;20.13;13.93;;;4.50;96.30;;;;;;4957163;28;20430;-75
2020/12/16 09:40:11;;;;;;;23.00;15.53;;;4.50;96.30;;;;;;4956189;28;20505;-75
2020/12/16 09:42:37;;;;;;;19.27;14.40;;;4.60;96.30;;;;;;4957151;28;20906;-75
2020/12/16 09:45:09;;;;;;;21.20;15.17;;;4.60;96.30;;;;;;4957392;28;20508;-75
2020/12/16 09:47:45;;;;;;;19.60;15.30;;;4.60;96.30;;;;;;4955723;28;21011;-75
2020/12/16 09:50:10;;;;;;;19.73;14.30;;;4.60;96.30;;;;;;4957373;28;20399;-75
2020/12/16 09:52:38;;;;;;;27.57;15.23;;;4.50;96.30;;;;;;4956827;28;20906;-75
2020/12/16 09:55:16;;;;;;;20.07;14.20;;;4.50;96.30;;;;;;4957188;28;20198;-75
2020/12/16 09:57:43;;;;;;;21.50;14.10;;;4.50;96.30;;;;;;4957083;28;20441;-75
2020/12/16 10:00:09;;;;;;;21.23;14.07;;;4.50;96.30;;;;;;4956894;28;20414;-75
2020/12/16 10:02:35;;;;;;;20.03;14.70;;;4.40;96.30;;;;;;4956799;28;20430;-75
2020/12/16 10:05:00;;;;;;;22.70;14.73;;;4.40;96.30;;;;;;4957098;28;20558;-75
2020/12/16 10:07:41;;;;;;;20.23;13.83;;;4.40;96.30;;;;;;4956706;28;20226;-75
2020/12/16 10:10:07;;;;;;;21.50;15.57;;;4.30;96.30;;;;;;4955771;28;20456;-76
2020/12/16 10:12:32;;;;;;;20.33;14.83;;;4.30;96.30;;;;;;4956601;28;20190;-75
2020/12/16 10:14:58;;;;;;;20.60;14.47;;;4.40;96.30;;;;;;4957091;28;20177;-75
2020/12/16 10:17:27;;;;;;;20.90;15.57;;;4.40;96.30;;;;;;4955533;28;20573;-75
2020/12/16 10:19:53;;;;;;;20.00;15.60;;;4.50;96.30;;;;;;4956849;28;20182;-75
2020/12/16 10:22:18;;;;;;;19.47;13.77;;;4.50;96.30;;;;;;4956589;28;20406;-75
2020/12/16 10:24:44;;;;;;;18.30;13.67;;;4.60;96.30;;;;;;4956692;28;20613;-75
2020/12/16 10:27:10;;;;;;;20.87;15.70;;;4.80;96.30;;;;;;4956414;28;20753;-75
2020/12/16 10:29:36;;;;;;;23.20;15.37;;;5.10;96.30;;;;;;4956569;28;20178;-75
2020/12/16 10:32:01;;;;;;;19.17;13.10;;;5.40;96.30;;;;;;4956351;28;20179;-75
2020/12/16 10:34:27;;;;;;;22.93;13.50;;;5.40;96.30;;;;;;4956520;28;20171;-75
2020/12/16 10:36:53;;;;;;;27.40;17.43;;;5.30;96.30;;;;;;4956368;28;20253;-75
2020/12/16 10:39:20;;;;;;;18.13;13.77;;;5.40;96.30;;;;;;4956446;28;20190;-75
2020/12/16 10:41:49;;;;;;;20.17;14.17;;;5.40;96.30;;;;;;4970336;28;21008;-75
2020/12/16 10:44:15;;;;;;;13.47;8.87;;;5.50;96.30;;;;;;4975610;28;20414;-75
2020/12/16 10:46:44;;;;;;;18.13;12.00;;;5.50;96.30;;;;;;4973871;28;20528;-75
2020/12/16 10:49:10;;;;;;;20.20;13.30;;;5.30;96.30;;;;;;4975381;28;20194;-75
2020/12/16 10:51:35;;;;;;;17.47;11.93;;;5.50;96.30;;;;;;4975053;28;20445;-75
2020/12/16 10:54:01;;;;;;;18.10;11.47;;;5.80;96.30;;;;;;4974962;28;20520;-75
2020/12/16 10:56:26;;;;;;;17.13;12.10;;;6.10;96.30;;;;;;4975464;28;20194;-75
2020/12/16 10:58:51;;;;;;;16.77;10.57;;;6.20;96.30;;;;;;4974933;28;20190;-75
2020/12/16 11:01:17;;;;;;;14.10;10.67;;;6.10;96.30;;;;;;4975385;28;20186;-75
2020/12/16 11:03:43;;;;;;;17.13;11.67;;;6.10;96.30;;;;;;4975086;28;20177;-75
2020/12/16 11:06:09;;;;;;;15.07;12.40;;;6.10;96.30;;;;;;4973796;28;20693;-75
2020/12/16 11:08:34;;;;;;;23.00;14.43;;;5.90;96.30;;;;;;4975170;28;20173;-75
2020/12/16 11:11:00;;;;;;;20.97;10.83;;;5.70;96.30;;;;;;4975087;28;20413;-75
2020/12/16 11:13:25;;;;;;;14.87;11.50;;;5.40;96.30;;;;;;4973668;28;20170;-75
2020/12/16 11:15:51;;;;;;;19.93;12.83;;;5.10;96.30;;;;;;4974989;28;20190;-75
2020/12/16 11:18:16;;;;;;;15.13;10.00;;;5.00;96.30;;;;;;4975041;28;20182;-75
2020/12/16 11:20:43;;;;;;;17.20;11.77;;;4.90;96.30;;;;;;4973689;28;20225;-75
2020/12/16 11:23:08;;;;;;;20.27;12.60;;;4.90;96.30;;;;;;4974221;28;20178;-75
2020/12/16 11:28:03;;;;;;;15.57;11.23;;;4.80;96.30;;;;;;4953685;29;20230;-76
2020/12/16 11:30:28;;;;;;;19.63;12.30;;;4.80;96.30;;;;;;4955480;28;20407;-76
2020/12/16 11:32:54;;;;;;;16.33;11.17;;;4.90;96.30;;;;;;4953947;28;20246;-76
2020/12/16 11:35:21;;;;;;;15.70;11.50;;;4.80;96.30;;;;;;4955706;28;20179;-77
2020/12/16 11:37:49;;;;;;;20.20;14.27;;;4.80;96.30;;;;;;4955310;28;20198;-76
2020/12/16 11:40:15;;;;;;;19.23;13.53;;;4.90;96.30;;;;;;4955242;28;20518;-77
2020/12/16 11:42:40;;;;;;;18.27;13.43;;;5.00;96.30;;;;;;4954650;28;20502;-76
2020/12/16 11:45:06;;;;;;;19.20;13.27;;;4.90;96.30;;;;;;4955296;28;20765;-76
2020/12/16 11:47:31;;;;;;;24.43;15.20;;;5.10;96.30;;;;;;4953843;28;20214;-76
2020/12/16 11:49:57;;;;;;;21.63;14.30;;;5.20;96.30;;;;;;4952092;29;20179;-76
2020/12/16 11:52:22;;;;;;;18.53;12.90;;;5.20;96.30;;;;;;4953482;28;20548;-77
2020/12/16 11:54:48;;;;;;;21.30;13.10;;;5.10;96.30;;;;;;4954180;28;20182;-77
2020/12/16 11:57:14;;;;;;;17.73;13.37;;;5.10;96.30;;;;;;4954003;28;20199;-77
2020/12/16 11:59:39;;;;;;;21.30;12.67;;;5.20;96.30;;;;;;4953424;28;20186;-76
2020/12/16 12:02:06;;;;;;;18.33;12.57;;;5.20;96.30;;;;;;4951618;28;20190;-76
2020/12/16 12:04:32;;;;;;;17.03;12.90;;;5.30;96.30;;;;;;4951915;28;20189;-76
2020/12/16 12:06:57;;;;;;;19.63;13.77;;;5.50;96.30;;;;;;4953336;28;20478;-76
2020/12/16 12:09:24;;;;;;;19.40;13.83;;;5.60;96.30;;;;;;4953839;28;20433;-76
2020/12/16 12:11:53;;;;;;;18.60;12.50;;;5.90;96.30;;;;;;4953174;28;20649;-76
2020/12/16 12:14:19;;;;;;;18.50;12.20;;;6.00;96.30;;;;;;4953735;28;21095;-76
2020/12/16 12:16:47;;;;;;;16.80;13.20;;;6.10;96.30;;;;;;4953828;28;20532;-77
2020/12/16 12:19:13;;;;;;;18.80;13.03;;;6.20;96.30;;;;;;4952747;28;20190;-77
2020/12/16 12:21:38;;;;;;;16.57;12.20;;;6.20;96.30;;;;;;4952592;28;20426;-78
2020/12/16 12:24:04;;;;;;;18.20;13.30;;;6.20;96.30;;;;;;4953755;28;20186;-76
2020/12/16 12:26:29;;;;;;;19.80;14.13;;;6.20;96.30;;;;;;4952603;28;20229;-76
2020/12/16 12:28:55;;;;;;;18.70;13.23;;;6.20;96.30;;;;;;4953448;28;20186;-76
2020/12/16 12:31:20;;;;;;;21.00;14.93;;;6.20;96.30;;;;;;4953377;28;20226;-76
2020/12/16 12:33:46;;;;;;;19.10;13.70;;;6.20;96.30;;;;;;4952874;28;20182;-77
2020/12/16 12:36:11;;;;;;;18.77;14.07;;;6.40;96.30;;;;;;4953514;28;20254;-76
2020/12/16 12:38:37;;;;;;;19.47;13.57;;;6.30;96.30;;;;;;4950553;28;20182;-76
2020/12/16 12:41:02;;;;;;;17.83;12.90;;;6.20;96.30;;;;;;4954127;28;20189;-76
2020/12/16 12:43:28;;;;;;;19.47;12.97;;;6.10;96.30;;;;;;4953734;28;20187;-76
2020/12/16 12:45:54;;;;;;;17.03;11.27;;;6.00;96.30;;;;;;4954025;28;20191;-76
2020/12/16 12:48:19;;;;;;;16.40;11.93;;;5.80;96.30;;;;;;4954309;28;20171;-75
2020/12/16 12:50:45;;;;;;;17.60;12.70;;;5.80;96.30;;;;;;4954080;28;20226;-76
2020/12/16 12:53:11;;;;;;;18.87;13.97;;;5.80;96.30;;;;;;4953201;28;20270;-76
2020/12/16 12:55:38;;;;;;;20.40;14.00;;;5.80;96.30;;;;;;4946525;28;20919;-77
2020/12/16 12:58:04;;;;;;;22.27;13.67;;;5.80;96.30;;;;;;4954107;28;20521;-76
2020/12/16 13:00:29;;;;;;;24.50;15.10;;;5.80;96.30;;;;;;4954094;28;20465;-75
2020/12/16 13:02:56;;;;;;;22.77;14.47;;;5.70;96.30;;;;;;4953821;28;20663;-75
2020/12/16 13:05:22;;;;;;;23.73;15.57;;;5.60;96.30;;;;;;4953710;28;20171;-75
2020/12/16 13:07:47;;;;;;;19.00;14.00;;;5.60;96.30;;;;;;4953847;28;20954;-75
2020/12/16 13:10:13;;;;;;;21.10;14.50;;;5.60;96.30;;;;;;4956095;28;20171;-76
2020/12/16 13:12:39;;;;;;;20.60;14.40;;;5.60;96.30;;;;;;4956112;28;20598;-77
2020/12/16 13:15:05;;;;;;;22.63;14.80;;;5.50;96.30;;;;;;4957901;28;20414;-76
2020/12/16 13:17:30;;;;;;;16.70;11.73;;;5.40;96.30;;;;;;4957123;28;20257;-76
2020/12/16 13:19:56;;;;;;;23.60;15.23;;;5.40;96.30;;;;;;4955967;28;20171;-77
2020/12/16 13:22:22;;;;;;;22.50;15.27;;;5.30;96.30;;;;;;4957295;28;20179;-76
2020/12/16 13:24:48;;;;;;;22.30;15.33;;;5.40;96.30;;;;;;4955625;28;20937;-77
2020/12/16 13:27:19;;;;;;;24.43;14.47;;;5.40;96.30;;;;;;4946449;29;20369;-76
2020/12/16 13:29:45;;;;;;;22.43;14.27;;;5.30;96.30;;;;;;4957067;28;20445;-76
2020/12/16 13:32:10;;;;;;;21.93;15.97;;;5.20;96.30;;;;;;4957068;28;20910;-76
2020/12/16 13:34:36;;;;;;;19.93;14.27;;;5.20;96.30;;;;;;4957575;28;20662;-76
2020/12/16 13:37:01;;;;;;;21.03;13.70;;;5.20;96.30;;;;;;4957555;28;20282;-75
2020/12/16 13:39:27;;;;;;;21.33;15.17;;;5.20;96.30;;;;;;4957655;28;20178;-76
2020/12/16 13:41:52;;;;;;;23.33;15.33;;;5.20;96.30;;;;;;4957014;28;20175;-77
2020/12/16 13:44:19;;;;;;;21.57;14.63;;;5.20;96.30;;;;;;4957514;28;20214;-77
2020/12/16 13:46:46;;;;;;;21.30;13.90;;;5.20;96.30;;;;;;4957352;28;20230;-77
2020/12/16 13:49:12;;;;;;;20.97;13.97;;;5.10;96.30;;;;;;4955990;29;20565;-76
2020/12/16 13:51:38;;;;;;;17.97;13.93;;;5.10;96.30;;;;;;4957159;29;20882;-76
2020/12/16 13:54:03;;;;;;;19.37;14.20;;;5.00;96.30;;;;;;4956944;28;20179;-76
2020/12/16 13:56:29;;;;;;;19.03;14.70;;;4.90;96.30;;;;;;4957226;28;20308;-76
2020/12/16 13:58:55;;;;;;;21.07;14.83;;;4.90;96.30;;;;;;4957192;28;20179;-76
2020/12/16 14:01:25;;;;;;;19.53;14.63;;;4.80;96.30;;;;;;4957117;28;20175;-76
2020/12/16 14:03:50;;;;;;;22.97;15.80;;;4.70;96.30;;;;;;4956791;28;20506;-75
2020/12/16 14:06:16;;;;;;;27.30;18.53;;;4.60;96.30;;;;;;4956581;28;20608;-76
2020/12/16 14:08:41;;;;;;;25.23;15.20;;;4.60;96.30;;;;;;4956810;28;20238;-75
2020/12/16 14:11:09;;;;;;;25.67;17.97;;;4.60;96.30;;;;;;4956959;28;20183;-76
2020/12/16 14:13:35;;;;;;;18.57;14.17;;;4.50;96.30;;;;;;4956697;28;20227;-77
2020/12/16 14:16:01;;;;;;;23.63;18.37;;;4.50;96.30;;;;;;4956801;28;20430;-75
2020/12/16 14:18:26;;;;;;;16.93;12.33;;;4.50;96.30;;;;;;4956441;28;20171;-75
2020/12/16 14:20:52;;;;;;;18.07;12.93;;;4.50;96.30;;;;;;4955726;28;20175;-76
2020/12/16 14:23:17;;;;;;;22.10;14.40;;;4.50;96.30;;;;;;4956504;28;20260;-76
2020/12/16 14:25:43;;;;;;;20.03;14.53;;;4.40;96.30;;;;;;4956246;28;20190;-75
2020/12/16 14:28:08;;;;;;;16.53;14.27;;;4.40;96.30;;;;;;4956631;28;20218;-76
2020/12/16 14:30:33;;;;;;;22.90;17.17;;;4.40;96.30;;;;;;4955598;28;20179;-77
2020/12/16 14:32:59;;;;;;;24.67;15.63;;;4.30;96.30;;;;;;4955651;28;20226;-75
2020/12/16 14:35:24;;;;;;;29.77;18.80;;;4.30;96.30;;;;;;4956208;28;20186;-76
2020/12/16 14:37:50;;;;;;;27.70;20.07;;;4.20;96.30;;;;;;4954896;29;20206;-76
2020/12/16 14:40:15;;;;;;;22.47;15.63;;;4.20;96.30;;;;;;4956253;28;20194;-76
2020/12/16 14:42:41;;;;;;;22.40;16.27;;;4.20;96.30;;;;;;4955730;28;20189;-76
2020/12/16 14:45:07;;;;;;;31.90;20.00;;;4.20;96.30;;;;;;4954734;29;20175;-76
2020/12/16 14:47:36;;;;;;;31.80;19.07;;;4.10;96.30;;;;;;4955649;28;20207;-77
2020/12/16 14:50:05;;;;;;;31.57;18.93;;;4.10;96.30;;;;;;4954684;29;20698;-75
2020/12/16 14:52:34;;;;;;;35.10;22.13;;;4.10;96.30;;;;;;4955821;28;20422;-75
2020/12/16 14:55:00;;;;;;;37.97;21.33;;;4.10;96.30;;;;;;4955744;28;20410;-76
2020/12/16 14:57:26;;;;;;;37.10;21.40;;;4.10;96.30;;;;;;4955660;28;20445;-76
2020/12/16 14:59:51;;;;;;;48.67;25.03;;;4.00;96.30;;;;;;4956099;28;20910;-76
2020/12/16 15:02:17;;;;;;;20.03;14.40;;;4.00;96.30;;;;;;4955566;28;20194;-77
2020/12/16 15:04:44;;;;;;;59.30;36.40;;;3.90;96.30;;;;;;4970498;28;20218;-77
2020/12/16 15:07:10;;;;;;;34.30;24.33;;;3.90;96.30;;;;;;4955483;28;20217;-76
2020/12/16 15:09:36;;;;;;;35.10;23.07;;;3.80;96.30;;;;;;4955535;28;20454;-76
2020/12/16 15:12:01;;;;;;;28.03;15.67;;;3.70;96.30;;;;;;4955325;28;20454;-77
2020/12/16 15:14:27;;;;;;;34.97;23.47;;;3.60;96.30;;;;;;4955834;28;20270;-76
2020/12/16 15:16:52;;;;;;;21.87;14.47;;;3.60;96.30;;;;;;4954977;28;20696;-76
2020/12/16 15:19:18;;;;;;;38.80;25.83;;;3.60;96.30;;;;;;4955569;28;20230;-76
2020/12/16 15:21:43;;;;;;;46.27;25.77;;;3.60;96.30;;;;;;4955112;28;20655;-76
2020/12/16 15:24:09;;;;;;;45.10;23.50;;;3.60;96.30;;;;;;4955608;28;20179;-76
2020/12/16 15:26:34;;;;;;;47.00;25.47;;;3.60;96.30;;;;;;4955087;28;20245;-76
2020/12/16 15:29:00;;;;;;;48.53;28.20;;;3.50;96.30;;;;;;4955472;28;20211;-76
2020/12/16 15:31:26;;;;;;;33.30;19.90;;;3.50;96.30;;;;;;4953905;28;20631;-76
2020/12/16 15:33:52;;;;;;;38.57;23.73;;;3.50;96.30;;;;;;4934895;29;20176;-76
2020/12/16 15:36:18;;;;;;;27.97;17.30;;;3.50;96.30;;;;;;4936112;29;20474;-76
2020/12/16 15:38:46;;;;;;;25.80;16.10;;;3.40;96.30;;;;;;4936122;29;20191;-75
2020/12/16 15:41:12;;;;;;;24.93;16.30;;;3.40;96.30;;;;;;4945713;29;20427;-75
2020/12/16 15:43:39;;;;;;;27.57;17.83;;;3.40;96.30;;;;;;4954735;28;20426;-77
2020/12/16 15:46:11;;;;;;;21.90;14.60;;;3.30;96.30;;;;;;4954690;28;20289;-77
2020/12/16 15:48:37;;;;;;;29.43;19.00;;;3.30;96.30;;;;;;4955251;28;20425;-76
2020/12/16 15:51:02;;;;;;;22.70;17.20;;;3.30;96.30;;;;;;4954881;28;20788;-77
2020/12/16 15:53:28;;;;;;;27.03;16.53;;;3.30;96.30;;;;;;4954561;28;20778;-76